createdAt,value
2019-04-30T00:02:40.023Z,9.15
2019-04-30T00:05:10.096Z,9.25
2019-04-30T00:07:38.201Z,9.55
2019-04-30T00:10:07.547Z,10.65
2019-04-30T00:12:39.422Z,9.85
2019-04-30T00:15:06.251Z,9.05
2019-04-30T00:17:35.862Z,12.47
2019-04-30T00:20:05.690Z,12.78
2019-04-30T00:22:34.485Z,9.98
2019-04-30T00:25:05.411Z,11.63
2019-04-30T00:27:35.528Z,10.95
2019-04-30T00:30:09.047Z,11.83
2019-04-30T00:32:43.390Z,11.08
2019-04-30T00:35:11.739Z,12.00
2019-04-30T00:37:37.731Z,10.25
2019-04-30T00:40:06.071Z,11.57
2019-04-30T00:42:35.765Z,11.50
2019-04-30T00:45:10.007Z,13.83
2019-04-30T00:47:39.422Z,12.78
2019-04-30T00:50:08.492Z,13.95
2019-04-30T00:52:37.329Z,10.98
2019-04-30T00:55:09.015Z,12.43
2019-04-30T00:57:43.768Z,13.32
2019-04-30T01:00:07.733Z,14.18
2019-04-30T01:02:49.831Z,14.18
2019-04-30T01:05:19.744Z,13.03
2019-04-30T01:07:51.697Z,15.70
2019-04-30T01:10:19.582Z,14.47
2019-04-30T01:12:50.267Z,16.57
2019-04-30T01:15:19.063Z,14.90
2019-04-30T01:17:51.069Z,15.63
2019-04-30T01:20:19.238Z,15.48
2019-04-30T01:22:48.679Z,16.90
2019-04-30T01:25:18.694Z,16.50
2019-04-30T01:27:48.998Z,16.00
2019-04-30T01:30:18.617Z,15.83
2019-04-30T01:32:51.948Z,15.75
2019-04-30T01:35:18.648Z,15.30
2019-04-30T01:37:48.757Z,15.32
2019-04-30T01:40:18.839Z,15.25
2019-04-30T01:42:48.514Z,15.15
2019-04-30T01:45:18.788Z,15.55
2019-04-30T01:47:47.292Z,14.33
2019-04-30T01:50:16.050Z,15.53
2019-04-30T01:52:53.064Z,14.55
2019-04-30T01:55:23.924Z,15.23
2019-04-30T01:58:09.102Z,14.45
2019-04-30T02:00:39.196Z,15.75
2019-04-30T02:03:08.753Z,15.72
2019-04-30T02:05:38.616Z,16.87
2019-04-30T02:08:08.453Z,18.20
2019-04-30T02:10:36.840Z,17.10
2019-04-30T02:13:05.123Z,17.60
2019-04-30T02:15:33.356Z,17.85
2019-04-30T02:18:01.629Z,18.27
2019-04-30T02:20:29.880Z,16.93
2019-04-30T02:22:58.799Z,19.05
2019-04-30T02:25:27.191Z,19.85
2019-04-30T02:27:55.452Z,19.65
2019-04-30T02:30:23.773Z,19.23
2019-04-30T02:32:52.482Z,17.60
2019-04-30T02:35:31.877Z,18.35
2019-04-30T02:38:10.850Z,18.87
2019-04-30T02:40:42.296Z,19.23
2019-04-30T02:43:09.437Z,20.68
2019-04-30T02:45:39.963Z,19.12
2019-04-30T02:48:11.401Z,19.95
2019-04-30T02:50:39.299Z,19.80
2019-04-30T02:53:29.254Z,21.35
2019-04-30T02:56:02.611Z,21.80
2019-04-30T02:58:30.430Z,21.12
2019-04-30T03:01:00.267Z,19.95
2019-04-30T03:03:29.908Z,21.35
2019-04-30T03:05:59.546Z,20.95
2019-04-30T03:08:29.771Z,22.32
2019-04-30T03:11:00.115Z,22.32
2019-04-30T03:13:29.962Z,21.70
2019-04-30T03:15:59.335Z,21.75
2019-04-30T03:18:30.270Z,22.22
2019-04-30T03:21:00.271Z,21.48
2019-04-30T03:23:29.320Z,22.62
2019-04-30T03:25:59.740Z,19.10
2019-04-30T03:28:30.162Z,21.05
2019-04-30T03:31:03.457Z,19.85
2019-04-30T03:33:32.233Z,22.30
2019-04-30T03:36:01.910Z,21.45
2019-04-30T03:38:30.087Z,22.50
2019-04-30T03:41:00.251Z,22.52
2019-04-30T03:43:30.094Z,22.00
2019-04-30T03:45:59.424Z,18.75
2019-04-30T03:48:29.382Z,20.65
2019-04-30T03:51:01.172Z,19.98
2019-04-30T03:53:29.826Z,22.35
2019-04-30T03:56:01.286Z,25.30
2019-04-30T03:58:29.269Z,23.22
2019-04-30T04:01:02.180Z,29.02
2019-04-30T04:03:32.069Z,30.85
2019-04-30T04:06:21.233Z,25.82
2019-04-30T04:08:49.896Z,26.12
2019-04-30T04:11:20.013Z,23.73
2019-04-30T04:13:49.573Z,22.20
2019-04-30T04:16:19.499Z,23.55
2019-04-30T04:18:50.103Z,24.82
2019-04-30T04:21:20.499Z,22.00
2019-04-30T04:23:49.333Z,20.75
2019-04-30T04:26:20.085Z,21.87
2019-04-30T04:28:49.656Z,28.92
2019-04-30T04:31:19.302Z,32.53
2019-04-30T04:33:49.672Z,24.27
2019-04-30T04:36:19.946Z,22.05
2019-04-30T04:38:50.421Z,20.70
2019-04-30T04:41:19.839Z,22.27
2019-04-30T04:43:50.414Z,21.97
2019-04-30T04:46:20.337Z,21.30
2019-04-30T04:48:49.351Z,23.77
2019-04-30T04:51:31.393Z,20.52
2019-04-30T04:53:50.090Z,24.00
2019-04-30T04:56:19.058Z,21.62
2019-04-30T04:58:49.962Z,20.32
2019-04-30T05:01:20.171Z,19.77
2019-04-30T05:03:49.033Z,22.55
2019-04-30T05:06:20.685Z,19.23
2019-04-30T05:08:49.225Z,19.57
2019-04-30T05:11:19.227Z,18.82
2019-04-30T05:13:49.046Z,20.27
2019-04-30T05:16:19.073Z,21.17
2019-04-30T05:18:48.783Z,20.43
2019-04-30T05:21:18.816Z,18.12
2019-04-30T05:23:49.118Z,18.00
2019-04-30T05:26:19.100Z,17.35
2019-04-30T05:28:50.866Z,18.05
2019-04-30T05:31:18.473Z,18.23
2019-04-30T05:33:48.893Z,17.27
2019-04-30T05:36:19.218Z,15.28
2019-04-30T05:38:48.751Z,18.70
2019-04-30T05:41:19.147Z,16.42
2019-04-30T05:43:48.805Z,17.23
2019-04-30T05:46:17.249Z,17.15
2019-04-30T05:48:47.160Z,16.50
2019-04-30T05:51:19.294Z,19.42
2019-04-30T05:53:49.100Z,16.60
2019-04-30T05:56:19.188Z,15.05
2019-04-30T05:58:47.062Z,18.17
2019-04-30T06:01:15.393Z,18.30
2019-04-30T06:03:43.642Z,18.57
2019-04-30T06:06:11.920Z,18.12
2019-04-30T06:08:41.904Z,18.27
2019-04-30T06:11:11.816Z,20.43
2019-04-30T06:13:49.158Z,18.12
2019-04-30T06:16:19.360Z,16.52
2019-04-30T06:18:48.539Z,16.02
2019-04-30T06:21:21.324Z,18.48
2019-04-30T06:23:47.164Z,18.77
2019-04-30T06:26:16.024Z,16.42
2019-04-30T06:28:44.465Z,19.02
2019-04-30T06:31:13.564Z,17.12
2019-04-30T06:33:42.998Z,19.82
2019-04-30T06:36:11.410Z,16.82
2019-04-30T06:38:39.687Z,17.67
2019-04-30T06:41:08.690Z,17.73
2019-04-30T06:43:38.577Z,18.37
2019-04-30T06:46:08.754Z,16.65
2019-04-30T06:48:37.118Z,15.70
2019-04-30T06:51:05.377Z,15.10
2019-04-30T06:53:33.702Z,14.65
2019-04-30T06:56:01.978Z,14.83
2019-04-30T06:58:30.214Z,18.40
2019-04-30T07:00:59.592Z,15.53
2019-04-30T07:03:29.079Z,17.10
2019-04-30T07:05:58.602Z,13.78
2019-04-30T07:08:54.643Z,13.85
2019-04-30T07:11:33.011Z,14.63
2019-04-30T07:14:01.329Z,15.50
2019-04-30T07:16:29.964Z,14.87
2019-04-30T07:18:58.599Z,17.17
2019-04-30T07:21:29.420Z,14.13
2019-04-30T07:23:57.302Z,13.62
2019-04-30T07:26:25.588Z,14.80
2019-04-30T07:28:55.298Z,13.13
2019-04-30T07:31:24.010Z,13.13
2019-04-30T07:33:53.959Z,11.70
2019-04-30T07:36:22.270Z,12.40
2019-04-30T07:38:56.124Z,11.38
2019-04-30T07:41:20.572Z,12.18
2019-04-30T07:43:49.463Z,12.70
2019-04-30T07:46:19.772Z,11.40
2019-04-30T07:48:49.946Z,10.48
2019-04-30T07:51:20.740Z,10.90
2019-04-30T07:53:49.647Z,10.15
2019-04-30T07:56:25.698Z,9.28
2019-04-30T07:58:50.250Z,9.55
2019-04-30T08:01:19.606Z,9.98
2019-04-30T08:03:52.348Z,10.85
2019-04-30T08:08:51.811Z,10.93
2019-04-30T08:11:25.724Z,10.68
2019-04-30T08:13:51.148Z,9.68
2019-04-30T08:16:19.638Z,9.28
2019-04-30T08:18:49.221Z,9.60
2019-04-30T08:21:19.043Z,8.90
2019-04-30T08:23:48.983Z,10.25
2019-04-30T08:26:18.792Z,8.58
2019-04-30T08:28:48.776Z,9.23
2019-04-30T08:31:19.379Z,9.23
2019-04-30T08:33:49.077Z,8.45
2019-04-30T08:36:19.534Z,8.75
2019-04-30T08:38:49.380Z,7.85
2019-04-30T08:41:19.249Z,7.70
2019-04-30T08:43:49.490Z,8.80
2019-04-30T08:46:19.087Z,7.58
2019-04-30T08:48:53.603Z,7.30
2019-04-30T08:51:20.879Z,8.60
2019-04-30T08:53:49.264Z,8.35
2019-04-30T08:56:21.668Z,7.08
2019-04-30T08:58:49.129Z,7.53
2019-04-30T09:01:19.584Z,6.60
2019-04-30T09:03:50.910Z,6.50
2019-04-30T09:09:10.712Z,8.23
2019-04-30T09:11:51.799Z,5.92
2019-04-30T09:14:08.839Z,6.17
2019-04-30T09:16:39.085Z,5.90
2019-04-30T09:19:14.743Z,7.90
2019-04-30T09:21:40.223Z,6.08
2019-04-30T09:24:09.512Z,7.20
2019-04-30T09:26:39.189Z,6.05
2019-04-30T09:29:09.286Z,6.17
2019-04-30T09:31:40.821Z,6.72
2019-04-30T09:34:17.095Z,7.40
2019-04-30T09:36:41.456Z,7.05
2019-04-30T09:39:11.289Z,8.65
2019-04-30T09:41:41.159Z,6.05
2019-04-30T09:44:10.053Z,7.25
2019-04-30T09:46:38.900Z,6.25
2019-04-30T09:49:09.520Z,6.42
2019-04-30T09:51:39.384Z,7.17
2019-04-30T09:54:11.852Z,7.78
2019-04-30T09:56:39.243Z,7.10
2019-04-30T09:59:09.123Z,8.70
2019-04-30T10:01:37.491Z,7.97
2019-04-30T10:04:06.257Z,9.98
2019-04-30T10:06:39.513Z,11.83
2019-04-30T10:09:06.664Z,11.05
2019-04-30T10:11:36.591Z,11.38
2019-04-30T10:14:04.840Z,13.40
2019-04-30T10:16:39.424Z,13.08
2019-04-30T10:19:10.272Z,12.45
2019-04-30T10:21:38.924Z,11.88
2019-04-30T10:24:13.066Z,14.45
2019-04-30T10:26:37.330Z,16.35
2019-04-30T10:29:05.808Z,14.20
2019-04-30T10:31:34.047Z,17.35
2019-04-30T10:34:02.330Z,17.87
2019-04-30T10:36:30.616Z,17.45
2019-04-30T10:38:59.556Z,20.97
2019-04-30T10:41:28.805Z,16.37
2019-04-30T10:43:59.061Z,17.32
2019-04-30T10:46:27.320Z,14.73
2019-04-30T10:48:55.573Z,16.70
2019-04-30T10:51:23.857Z,16.55
2019-04-30T10:53:52.130Z,17.62
2019-04-30T10:56:23.416Z,14.63
2019-04-30T10:58:51.706Z,17.15
2019-04-30T11:01:29.166Z,18.37
2019-04-30T11:03:57.594Z,18.50
2019-04-30T11:06:25.844Z,20.10
2019-04-30T11:08:53.878Z,17.32
2019-04-30T11:11:21.996Z,15.10
2019-04-30T11:13:50.242Z,15.83
2019-04-30T11:16:18.928Z,10.75
2019-04-30T11:18:47.425Z,10.60
2019-04-30T11:21:16.203Z,10.63
2019-04-30T11:23:44.798Z,16.15
2019-04-30T11:26:13.825Z,14.03
2019-04-30T11:28:42.661Z,14.65
2019-04-30T11:31:12.824Z,14.65
2019-04-30T11:33:41.441Z,15.80
2019-04-30T11:36:10.050Z,14.78
2019-04-30T11:38:38.879Z,15.25
2019-04-30T11:41:08.671Z,16.67
2019-04-30T11:43:37.105Z,20.23
2019-04-30T11:46:18.702Z,18.40
2019-04-30T11:48:48.895Z,22.35
2019-04-30T11:51:19.287Z,23.83
2019-04-30T11:53:49.022Z,19.73
2019-04-30T11:56:17.435Z,20.23
2019-04-30T11:58:45.724Z,19.60
2019-04-30T12:01:15.690Z,21.25
2019-04-30T12:03:43.987Z,21.82
2019-04-30T12:06:12.302Z,23.65
2019-04-30T12:08:59.104Z,22.50
2019-04-30T12:11:37.733Z,23.83
2019-04-30T12:14:06.092Z,21.80
2019-04-30T12:16:34.380Z,23.10
2019-04-30T12:19:02.707Z,23.07
2019-04-30T12:21:31.006Z,21.35
2019-04-30T12:23:59.288Z,22.42
2019-04-30T12:26:29.180Z,23.87
2019-04-30T12:28:57.450Z,27.48
2019-04-30T12:31:25.748Z,22.85
2019-04-30T12:33:54.094Z,24.80
2019-04-30T12:36:22.534Z,21.95
2019-04-30T12:38:50.815Z,23.30
2019-04-30T12:41:19.074Z,21.97
2019-04-30T12:43:47.341Z,18.92
2019-04-30T12:46:15.642Z,20.35
2019-04-30T12:48:51.318Z,20.02
2019-04-30T12:51:27.185Z,20.60
2019-04-30T12:53:57.087Z,20.25
2019-04-30T12:56:35.668Z,20.02
2019-04-30T12:59:04.039Z,23.00
2019-04-30T13:01:34.202Z,25.00
2019-04-30T13:04:02.268Z,23.77
2019-04-30T13:06:31.833Z,25.85
2019-04-30T13:09:01.253Z,24.35
2019-04-30T13:11:31.086Z,26.42
2019-04-30T13:14:00.368Z,26.77
2019-04-30T13:16:29.315Z,25.75
2019-04-30T13:18:59.365Z,25.50
2019-04-30T13:21:28.465Z,27.45
2019-04-30T13:23:56.991Z,25.12
2019-04-30T13:26:25.235Z,27.32
2019-04-30T13:29:13.590Z,24.75
2019-04-30T13:31:41.836Z,25.85
2019-04-30T13:34:30.011Z,27.80
2019-04-30T13:36:59.377Z,24.02
2019-04-30T13:39:29.420Z,25.40
2019-04-30T13:41:59.322Z,23.95
2019-04-30T13:44:29.463Z,24.10
2019-04-30T13:46:57.886Z,22.22
2019-04-30T13:49:26.206Z,21.65
2019-04-30T13:51:54.471Z,21.52
2019-04-30T13:54:22.725Z,19.32
2019-04-30T13:56:50.958Z,22.02
2019-04-30T13:59:19.231Z,23.77
2019-04-30T14:01:48.885Z,22.13
2019-04-30T14:04:25.116Z,23.10
2019-04-30T14:07:11.334Z,21.17
2019-04-30T14:09:39.865Z,18.23
2019-04-30T14:12:08.114Z,20.57
2019-04-30T14:14:36.390Z,18.73
2019-04-30T14:17:04.645Z,18.50
2019-04-30T14:19:32.905Z,22.50
2019-04-30T14:22:01.156Z,19.23
2019-04-30T14:24:29.401Z,19.95
2019-04-30T14:26:59.082Z,18.10
2019-04-30T14:29:28.473Z,18.80
2019-04-30T14:31:58.772Z,18.73
2019-04-30T14:34:28.596Z,21.17
2019-04-30T14:36:59.182Z,20.48
2019-04-30T14:39:29.040Z,21.48
2019-04-30T14:41:59.627Z,26.17
2019-04-30T14:44:31.179Z,28.32
2019-04-30T14:47:06.439Z,22.73
2019-04-30T14:50:01.594Z,18.45
2019-04-30T14:52:23.247Z,22.15
2019-04-30T14:55:09.774Z,20.68
2019-04-30T14:57:42.644Z,20.20
2019-04-30T15:00:18.021Z,22.32
2019-04-30T15:02:50.000Z,35.38
2019-04-30T15:05:19.589Z,28.85
2019-04-30T15:07:47.899Z,20.50
2019-04-30T15:10:16.261Z,23.10
2019-04-30T15:12:44.505Z,33.88
2019-04-30T15:15:12.817Z,23.07
2019-04-30T15:17:41.274Z,21.57
2019-04-30T15:20:09.611Z,19.67
2019-04-30T15:22:39.518Z,24.02
2019-04-30T15:25:07.774Z,23.10
2019-04-30T15:27:36.019Z,23.70
2019-04-30T15:30:06.318Z,21.93
2019-04-30T15:32:36.203Z,21.60
2019-04-30T15:35:06.484Z,24.15
2019-04-30T15:37:35.609Z,23.20
2019-04-30T15:40:05.806Z,24.32
2019-04-30T15:42:35.700Z,19.85
2019-04-30T15:45:05.601Z,22.42
2019-04-30T15:47:33.854Z,27.73
2019-04-30T15:50:02.305Z,35.83
2019-04-30T15:52:30.635Z,21.93
2019-04-30T15:54:59.289Z,20.85
2019-04-30T15:57:29.416Z,20.55
2019-04-30T15:59:57.697Z,23.67
2019-04-30T16:02:33.531Z,31.25
2019-04-30T16:05:09.475Z,19.98
2019-04-30T16:07:40.745Z,19.45
2019-04-30T16:10:11.300Z,21.23
2019-04-30T16:12:41.204Z,19.77
2019-04-30T16:15:10.040Z,18.80
2019-04-30T16:17:40.018Z,20.55
2019-04-30T16:20:08.422Z,18.87
2019-04-30T16:22:36.696Z,19.23
2019-04-30T16:25:05.985Z,20.88
2019-04-30T16:27:34.237Z,20.50
2019-04-30T16:30:02.479Z,19.48
2019-04-30T16:32:30.758Z,21.87
2019-04-30T16:34:59.338Z,20.77
2019-04-30T16:37:28.745Z,22.22
2019-04-30T16:39:57.189Z,19.62
2019-04-30T16:42:25.438Z,22.50
2019-04-30T16:44:53.679Z,19.50
2019-04-30T16:47:21.948Z,21.90
2019-04-30T16:49:50.261Z,24.00
2019-04-30T16:52:18.995Z,19.12
2019-04-30T16:54:47.948Z,21.95
2019-04-30T16:57:17.376Z,20.52
2019-04-30T16:59:45.614Z,20.52
2019-04-30T17:02:14.258Z,21.73
2019-04-30T17:04:59.101Z,21.90
2019-04-30T17:07:31.537Z,18.77
2019-04-30T17:10:08.989Z,19.35
2019-04-30T17:12:38.775Z,20.25
2019-04-30T17:15:23.708Z,18.10
2019-04-30T17:17:51.969Z,19.90
2019-04-30T17:20:21.039Z,20.02
2019-04-30T17:22:49.738Z,21.12
2019-04-30T17:25:18.677Z,20.23
2019-04-30T17:27:46.933Z,17.92
2019-04-30T17:30:15.172Z,16.95
2019-04-30T17:32:50.155Z,17.70
2019-04-30T17:35:19.011Z,20.62
2019-04-30T17:37:47.518Z,17.65
2019-04-30T17:40:15.760Z,20.10
2019-04-30T17:42:44.021Z,18.32
2019-04-30T17:45:12.295Z,20.37
2019-04-30T17:47:40.569Z,19.37
2019-04-30T17:50:09.128Z,16.95
2019-04-30T17:52:37.464Z,18.87
2019-04-30T17:55:09.677Z,19.12
2019-04-30T17:57:40.089Z,18.82
2019-04-30T18:00:16.936Z,19.02
2019-04-30T18:02:43.220Z,18.70
2019-04-30T18:05:11.833Z,20.12
2019-04-30T18:07:40.072Z,19.85
2019-04-30T18:10:13.147Z,19.05
2019-04-30T18:15:15.047Z,19.75
2019-04-30T18:17:44.958Z,19.70
2019-04-30T18:20:32.722Z,19.15
2019-04-30T18:23:08.428Z,19.95
2019-04-30T18:25:38.659Z,20.12
2019-04-30T18:28:09.149Z,19.45
2019-04-30T18:30:39.171Z,22.40
2019-04-30T18:33:09.712Z,21.40
2019-04-30T18:35:38.836Z,18.27
2019-04-30T18:38:07.330Z,19.85
2019-04-30T18:40:35.671Z,20.55
2019-04-30T18:43:04.886Z,22.80
2019-04-30T18:45:33.146Z,19.40
2019-04-30T18:48:01.745Z,22.05
2019-04-30T18:50:30.127Z,22.30
2019-04-30T18:53:00.014Z,23.20
2019-04-30T18:55:28.598Z,21.80
2019-04-30T18:57:59.570Z,22.32
2019-04-30T19:00:29.457Z,21.70
2019-04-30T19:02:58.654Z,31.02
2019-04-30T19:05:29.396Z,21.62
2019-04-30T19:07:59.916Z,20.68
2019-04-30T19:10:41.571Z,21.02
2019-04-30T19:13:20.193Z,20.32
2019-04-30T19:16:19.933Z,21.57
2019-04-30T19:18:53.845Z,20.95
2019-04-30T19:21:22.252Z,23.10
2019-04-30T19:23:52.125Z,21.55
2019-04-30T19:26:20.901Z,25.95
2019-04-30T19:28:49.380Z,21.93
2019-04-30T19:31:19.725Z,23.18
2019-04-30T19:33:48.916Z,21.65
2019-04-30T19:36:20.698Z,22.93
2019-04-30T19:38:48.553Z,21.80
2019-04-30T19:41:18.913Z,23.00
2019-04-30T19:43:49.407Z,21.62
2019-04-30T19:46:18.752Z,20.80
2019-04-30T19:48:50.399Z,21.23
2019-04-30T19:51:17.306Z,24.43
2019-04-30T19:53:45.569Z,24.23
2019-04-30T19:56:13.828Z,24.30
2019-04-30T19:58:52.507Z,22.82
2019-04-30T20:01:12.081Z,21.62
2019-04-30T20:03:43.007Z,24.15
2019-04-30T20:06:11.256Z,24.82
2019-04-30T20:08:39.520Z,21.70
2019-04-30T20:11:07.783Z,21.95
2019-04-30T20:13:37.160Z,25.97
2019-04-30T20:16:05.652Z,22.25
2019-04-30T20:18:33.933Z,23.45
2019-04-30T20:21:03.924Z,23.70
2019-04-30T20:23:32.191Z,21.90
2019-04-30T20:26:00.489Z,22.65
2019-04-30T20:28:38.418Z,23.42
2019-04-30T20:30:58.713Z,21.25
2019-04-30T20:33:28.893Z,24.37
2019-04-30T20:35:58.949Z,22.98
2019-04-30T20:38:34.580Z,25.32
2019-04-30T20:41:14.700Z,24.47
2019-04-30T20:43:43.051Z,20.60
2019-04-30T20:46:11.301Z,23.45
2019-04-30T20:48:41.138Z,25.15
2019-04-30T20:51:09.700Z,23.15
2019-04-30T20:53:39.099Z,23.57
2019-04-30T20:56:09.245Z,23.92
2019-04-30T20:58:40.491Z,23.40
2019-04-30T21:01:09.639Z,23.15
2019-04-30T21:03:39.592Z,21.45
2019-04-30T21:06:08.842Z,22.95
2019-04-30T21:08:37.466Z,23.25
2019-04-30T21:11:05.707Z,25.15
2019-04-30T21:13:33.971Z,22.20
2019-04-30T21:16:02.230Z,25.23
2019-04-30T21:18:32.493Z,25.08
2019-04-30T21:21:00.473Z,24.02
2019-04-30T21:23:29.242Z,21.42
2019-04-30T21:25:58.926Z,21.80
2019-04-30T21:28:29.519Z,24.50
2019-04-30T21:30:59.024Z,22.95
2019-04-30T21:33:28.925Z,23.40
2019-04-30T21:35:58.895Z,27.27
2019-04-30T21:38:29.101Z,21.77
2019-04-30T21:41:00.921Z,22.05
2019-04-30T21:43:27.185Z,22.35
2019-04-30T21:45:55.446Z,27.07
2019-04-30T21:48:23.714Z,23.52
2019-04-30T21:50:51.951Z,21.93
2019-04-30T21:53:20.234Z,21.95
2019-04-30T21:55:49.685Z,22.40
2019-04-30T21:58:20.454Z,20.85
2019-04-30T22:00:50.797Z,23.27
2019-04-30T22:03:19.741Z,22.93
2019-04-30T22:05:48.216Z,24.00
2019-04-30T22:08:16.466Z,24.18
2019-04-30T22:10:44.702Z,23.67
2019-04-30T22:13:12.958Z,24.90
2019-04-30T22:15:41.215Z,29.60
2019-04-30T22:18:09.457Z,24.95
2019-04-30T22:20:38.860Z,26.82
2019-04-30T22:23:07.342Z,27.25
2019-04-30T22:25:35.639Z,23.92
2019-04-30T22:28:03.914Z,22.95
2019-04-30T22:30:32.218Z,24.50
2019-04-30T22:33:00.450Z,22.90
2019-04-30T22:35:30.326Z,25.37
2019-04-30T22:38:09.335Z,26.35
2019-04-30T22:40:39.215Z,26.52
2019-04-30T22:43:09.334Z,26.35
2019-04-30T22:45:42.424Z,26.12
2019-04-30T22:48:10.667Z,27.52
2019-04-30T22:50:38.931Z,25.45
2019-04-30T22:53:07.183Z,25.92
2019-04-30T22:55:35.424Z,25.20
2019-04-30T22:58:03.973Z,28.17
2019-04-30T23:00:33.874Z,29.63
2019-04-30T23:03:03.781Z,26.42
2019-04-30T23:05:32.055Z,25.50
2019-04-30T23:08:00.398Z,26.30
2019-04-30T23:10:28.769Z,24.95
2019-04-30T23:12:57.052Z,25.55
2019-04-30T23:15:25.295Z,26.48
2019-04-30T23:17:53.589Z,23.85
2019-04-30T23:20:21.847Z,28.00
2019-04-30T23:22:50.097Z,26.52
2019-04-30T23:25:18.367Z,26.20
2019-04-30T23:27:46.666Z,24.65
2019-04-30T23:30:14.918Z,24.87
2019-04-30T23:32:43.173Z,30.55
2019-04-30T23:35:11.431Z,27.07
2019-04-30T23:37:39.776Z,26.95
2019-04-30T23:40:32.204Z,27.58
2019-04-30T23:43:00.439Z,25.32
2019-04-30T23:45:28.720Z,26.15
2019-04-30T23:47:56.987Z,25.10
2019-04-30T23:50:25.250Z,24.85
2019-04-30T23:52:53.500Z,26.27
2019-04-30T23:55:21.750Z,22.55
2019-04-30T23:57:50.031Z,26.30
